createdAt,value
2019-05-14T00:01:22.189Z,1.65
2019-05-14T00:04:11.534Z,1.70
2019-05-14T00:07:01.051Z,1.57
2019-05-14T00:09:49.103Z,1.22
2019-05-14T00:12:37.557Z,1.70
2019-05-14T00:15:25.516Z,1.70
2019-05-14T00:18:13.468Z,1.70
2019-05-14T00:21:02.029Z,1.42
2019-05-14T00:23:51.387Z,1.55
2019-05-14T00:26:39.349Z,1.70
2019-05-14T00:29:27.939Z,1.40
2019-05-14T00:32:16.563Z,1.72
2019-05-14T00:35:05.508Z,1.15
2019-05-14T00:37:54.280Z,1.65
2019-05-14T00:40:42.515Z,1.65
2019-05-14T00:43:32.410Z,1.70
2019-05-14T00:46:21.164Z,1.52
2019-05-14T00:49:11.749Z,1.90
2019-05-14T00:51:59.424Z,1.90
2019-05-14T00:54:47.559Z,1.47
2019-05-14T00:57:35.849Z,1.98
2019-05-14T01:00:24.113Z,2.00
2019-05-14T01:03:11.772Z,2.08
2019-05-14T01:06:02.214Z,2.17
2019-05-14T01:08:51.681Z,1.80
2019-05-14T01:11:39.055Z,2.25
2019-05-14T01:14:26.692Z,2.37
2019-05-14T01:17:14.690Z,2.05
2019-05-14T01:20:03.310Z,1.67
2019-05-14T01:22:51.906Z,2.25
2019-05-14T01:25:42.048Z,2.33
2019-05-14T01:28:29.164Z,2.20
2019-05-14T01:31:17.252Z,2.50
2019-05-14T01:34:05.519Z,2.08
2019-05-14T01:36:53.341Z,2.30
2019-05-14T01:39:42.024Z,2.95
2019-05-14T01:42:32.060Z,2.37
2019-05-14T01:45:25.152Z,2.40
2019-05-14T01:48:11.525Z,2.30
2019-05-14T01:51:01.484Z,2.83
2019-05-14T01:53:49.110Z,2.47
2019-05-14T01:56:37.254Z,2.08
2019-05-14T01:59:24.806Z,2.42
2019-05-14T02:02:12.539Z,3.00
2019-05-14T02:05:02.014Z,2.47
2019-05-14T02:07:52.416Z,1.95
2019-05-14T02:10:41.797Z,2.30
2019-05-14T02:13:29.399Z,2.10
2019-05-14T02:16:17.083Z,2.35
2019-05-14T02:19:04.986Z,2.30
2019-05-14T02:21:53.251Z,1.90
2019-05-14T02:24:41.924Z,2.77
2019-05-14T02:27:34.779Z,2.00
2019-05-14T02:30:24.804Z,2.40
2019-05-14T02:33:09.560Z,2.33
2019-05-14T02:36:00.048Z,2.08
2019-05-14T02:38:49.282Z,2.22
2019-05-14T02:41:39.132Z,2.47
2019-05-14T02:44:29.436Z,2.27
2019-05-14T02:47:19.230Z,1.85
2019-05-14T02:50:09.692Z,2.92
2019-05-14T02:52:56.109Z,2.42
2019-05-14T02:55:44.659Z,2.33
2019-05-14T02:58:33.080Z,2.65
2019-05-14T03:01:20.963Z,2.87
2019-05-14T03:04:09.498Z,2.60
2019-05-14T03:06:59.253Z,2.35
2019-05-14T03:09:49.867Z,2.67
2019-05-14T03:12:39.576Z,2.83
2019-05-14T03:15:28.882Z,3.40
2019-05-14T03:18:15.121Z,3.33
2019-05-14T03:21:03.522Z,3.37
2019-05-14T03:23:51.567Z,3.33
2019-05-14T03:26:39.957Z,3.58
2019-05-14T03:29:30.804Z,3.40
2019-05-14T03:32:22.431Z,3.27
2019-05-14T03:35:13.254Z,3.45
2019-05-14T03:38:00.303Z,3.37
2019-05-14T03:40:49.433Z,3.42
2019-05-14T03:43:39.987Z,3.27
2019-05-14T03:46:44.207Z,3.50
2019-05-14T03:49:19.835Z,3.52
2019-05-14T03:52:09.556Z,3.75
2019-05-14T03:55:01.324Z,4.72
2019-05-14T03:57:49.790Z,3.60
2019-05-14T04:01:00.808Z,3.83
2019-05-14T04:03:50.443Z,3.72
2019-05-14T04:06:41.806Z,4.22
2019-05-14T04:09:31.784Z,4.12
2019-05-14T04:12:23.043Z,3.95
2019-05-14T04:15:11.264Z,3.52
2019-05-14T04:17:59.798Z,4.30
2019-05-14T04:20:50.293Z,3.98
2019-05-14T04:23:40.425Z,3.95
2019-05-14T04:26:30.398Z,3.90
2019-05-14T04:29:20.486Z,3.85
2019-05-14T04:32:10.050Z,3.25
2019-05-14T04:34:59.800Z,4.08
2019-05-14T04:37:49.600Z,3.85
2019-05-14T04:40:40.028Z,2.98
2019-05-14T04:43:29.383Z,3.15
2019-05-14T04:46:19.896Z,3.17
2019-05-14T04:49:09.707Z,3.60
2019-05-14T04:51:59.519Z,3.45
2019-05-14T04:54:49.942Z,3.50
2019-05-14T04:57:39.260Z,3.75
2019-05-14T05:00:30.199Z,3.37
2019-05-14T05:03:19.675Z,3.52
2019-05-14T05:06:05.318Z,4.33
2019-05-14T05:08:53.389Z,3.20
2019-05-14T05:11:40.994Z,2.65
2019-05-14T05:14:29.628Z,3.67
2019-05-14T05:17:19.570Z,3.45
2019-05-14T05:20:10.001Z,2.98
2019-05-14T05:22:59.080Z,3.95
2019-05-14T05:25:48.911Z,3.17
2019-05-14T05:28:38.885Z,3.00
2019-05-14T05:31:26.068Z,3.40
2019-05-14T05:34:14.351Z,3.37
2019-05-14T05:37:02.594Z,3.20
2019-05-14T05:39:51.350Z,3.42
2019-05-14T05:42:39.832Z,3.37
2019-05-14T05:45:29.043Z,3.40
2019-05-14T05:48:18.801Z,2.62
2019-05-14T05:51:09.040Z,2.72
2019-05-14T05:53:58.647Z,2.95
2019-05-14T05:56:48.022Z,3.25
2019-05-14T05:59:34.670Z,2.90
2019-05-14T06:02:22.591Z,3.50
2019-05-14T06:05:11.088Z,3.87
2019-05-14T06:07:59.837Z,3.60
2019-05-14T06:11:08.364Z,3.20
2019-05-14T06:13:58.912Z,3.02
2019-05-14T06:16:48.664Z,3.35
2019-05-14T06:19:37.957Z,2.80
2019-05-14T06:22:27.880Z,2.90
2019-05-14T06:25:14.763Z,2.92
2019-05-14T06:28:03.556Z,2.75
2019-05-14T06:30:53.018Z,2.95
2019-05-14T06:33:41.070Z,2.22
2019-05-14T06:36:29.503Z,3.25
2019-05-14T06:39:18.348Z,2.62
2019-05-14T06:42:08.843Z,2.42
2019-05-14T06:44:58.444Z,2.60
2019-05-14T06:47:45.527Z,2.60
2019-05-14T06:50:33.846Z,2.30
2019-05-14T06:53:22.039Z,3.15
2019-05-14T06:56:10.416Z,3.80
2019-05-14T06:58:58.687Z,3.50
2019-05-14T07:01:48.938Z,3.12
2019-05-14T07:04:39.436Z,2.22
2019-05-14T07:07:29.713Z,2.25
2019-05-14T07:10:19.421Z,1.75
2019-05-14T07:13:08.610Z,2.00
2019-05-14T07:15:58.362Z,2.10
2019-05-14T07:18:50.708Z,1.52
2019-05-14T07:21:38.178Z,2.12
2019-05-14T07:24:24.889Z,1.80
2019-05-14T07:27:13.622Z,2.40
2019-05-14T07:30:01.929Z,2.12
2019-05-14T07:32:49.592Z,2.77
2019-05-14T07:35:38.252Z,2.02
2019-05-14T07:38:28.432Z,2.20
2019-05-14T07:41:15.871Z,2.77
2019-05-14T07:44:04.132Z,2.83
2019-05-14T07:46:52.156Z,1.92
2019-05-14T07:49:40.768Z,2.55
2019-05-14T07:52:29.178Z,2.20
2019-05-14T07:55:18.547Z,2.58
2019-05-14T07:58:08.362Z,2.47
2019-05-14T08:00:58.613Z,2.50
2019-05-14T08:03:48.510Z,2.80
2019-05-14T08:06:35.662Z,2.20
2019-05-14T08:09:23.500Z,2.25
2019-05-14T08:12:12.878Z,1.47
2019-05-14T08:15:15.460Z,1.52
2019-05-14T08:17:51.602Z,1.30
2019-05-14T08:20:39.768Z,1.35
2019-05-14T08:23:28.342Z,1.72
2019-05-14T08:26:19.069Z,1.85
2019-05-14T08:29:08.532Z,1.70
2019-05-14T08:31:58.199Z,1.90
2019-05-14T08:34:45.252Z,2.95
2019-05-14T08:37:33.309Z,1.85
2019-05-14T08:40:22.866Z,2.12
2019-05-14T08:43:10.645Z,2.05
2019-05-14T08:45:58.946Z,1.57
2019-05-14T08:49:08.887Z,1.80
2019-05-14T08:51:56.100Z,1.57
2019-05-14T08:54:45.024Z,1.80
2019-05-14T08:57:33.231Z,1.70
2019-05-14T09:00:21.629Z,1.70
2019-05-14T09:03:09.449Z,2.15
2019-05-14T09:06:00.487Z,1.98
2019-05-14T09:08:49.587Z,1.60
2019-05-14T09:11:44.555Z,1.72
2019-05-14T09:14:28.178Z,1.80
2019-05-14T09:17:18.612Z,1.75
2019-05-14T09:20:10.991Z,1.87
2019-05-14T09:22:56.423Z,1.70
2019-05-14T09:25:48.708Z,1.75
2019-05-14T09:28:34.313Z,1.65
2019-05-14T09:31:22.735Z,1.20
2019-05-14T09:34:11.259Z,1.85
2019-05-14T09:36:59.691Z,1.92
2019-05-14T09:39:48.831Z,1.80
2019-05-14T09:42:58.684Z,1.52
2019-05-14T09:45:48.188Z,1.50
2019-05-14T09:48:38.022Z,1.87
2019-05-14T09:51:25.769Z,1.65
2019-05-14T09:54:14.037Z,2.35
2019-05-14T09:57:02.465Z,1.60
2019-05-14T09:59:50.983Z,1.72
2019-05-14T10:02:39.516Z,1.70
2019-05-14T10:05:27.670Z,1.77
2019-05-14T10:08:19.157Z,2.33
2019-05-14T10:11:06.462Z,2.30
2019-05-14T10:13:54.768Z,2.37
2019-05-14T10:16:43.342Z,1.98
2019-05-14T10:19:31.438Z,2.30
2019-05-14T10:22:19.906Z,2.30
2019-05-14T10:25:28.756Z,2.15
2019-05-14T10:28:19.084Z,2.30
2019-05-14T10:31:09.161Z,2.25
2019-05-14T10:33:56.051Z,1.40
2019-05-14T10:36:44.511Z,1.57
2019-05-14T10:39:32.752Z,1.52
2019-05-14T10:42:21.476Z,1.70
2019-05-14T10:45:12.665Z,1.50
2019-05-14T10:48:00.936Z,1.40
2019-05-14T10:50:58.918Z,1.67
2019-05-14T10:53:59.371Z,1.60
2019-05-14T10:56:50.498Z,1.50
2019-05-14T10:59:38.949Z,1.55
2019-05-14T11:02:29.179Z,1.90
2019-05-14T11:05:18.720Z,1.92
2019-05-14T11:08:06.686Z,2.00
2019-05-14T11:11:03.180Z,1.90
2019-05-14T11:13:45.368Z,2.12
2019-05-14T11:16:34.110Z,2.10
2019-05-14T11:19:22.553Z,2.35
2019-05-14T11:22:10.818Z,2.02
2019-05-14T11:24:59.177Z,2.40
2019-05-14T11:27:49.388Z,2.27
2019-05-14T11:30:39.199Z,2.15
2019-05-14T11:33:29.644Z,2.65
2019-05-14T11:36:18.812Z,2.15
2019-05-14T11:39:09.332Z,2.37
2019-05-14T11:41:59.113Z,2.87
2019-05-14T11:44:48.926Z,2.75
2019-05-14T11:47:38.003Z,3.17
2019-05-14T11:50:28.755Z,2.85
2019-05-14T11:53:19.820Z,3.33
2019-05-14T11:56:08.716Z,3.10
2019-05-14T11:58:55.834Z,2.40
2019-05-14T12:01:44.521Z,2.12
2019-05-14T12:04:32.594Z,3.05
2019-05-14T12:07:21.182Z,2.70
2019-05-14T12:10:10.369Z,2.92
2019-05-14T12:12:58.617Z,2.47
2019-05-14T12:15:48.322Z,3.20
2019-05-14T12:18:35.212Z,2.72
2019-05-14T12:21:23.032Z,2.95
2019-05-14T12:24:13.572Z,3.25
2019-05-14T12:27:01.501Z,3.20
2019-05-14T12:29:50.268Z,2.98
2019-05-14T12:32:39.650Z,2.70
2019-05-14T12:35:29.191Z,3.33
2019-05-14T12:38:18.772Z,3.27
2019-05-14T12:41:08.917Z,2.95
2019-05-14T12:43:58.790Z,3.42
2019-05-14T12:46:48.778Z,3.00
2019-05-14T12:49:38.527Z,3.52
2019-05-14T12:52:26.162Z,2.72
2019-05-14T12:55:15.159Z,2.77
2019-05-14T12:58:03.294Z,2.45
2019-05-14T13:00:52.557Z,2.35
2019-05-14T13:03:41.434Z,1.90
2019-05-14T13:06:29.573Z,2.62
2019-05-14T13:09:21.336Z,2.95
2019-05-14T13:12:29.750Z,2.50
2019-05-14T13:15:20.056Z,2.52
2019-05-14T13:18:08.712Z,2.47
2019-05-14T13:20:56.308Z,2.70
2019-05-14T13:23:44.281Z,2.70
2019-05-14T13:26:32.877Z,2.45
2019-05-14T13:29:20.921Z,3.25
2019-05-14T13:32:12.289Z,3.52
2019-05-14T13:34:59.221Z,3.33
2019-05-14T13:37:48.840Z,2.98
2019-05-14T13:40:38.951Z,3.30
2019-05-14T13:43:26.332Z,3.17
2019-05-14T13:46:15.332Z,2.85
2019-05-14T13:49:03.249Z,3.22
2019-05-14T13:51:51.366Z,2.70
2019-05-14T13:54:39.563Z,3.05
2019-05-14T13:57:28.690Z,2.77
2019-05-14T14:00:36.944Z,2.45
2019-05-14T14:03:24.776Z,2.98
2019-05-14T14:06:12.537Z,2.72
2019-05-14T14:09:00.631Z,4.55
2019-05-14T14:11:49.197Z,2.40
2019-05-14T14:14:38.651Z,2.83
2019-05-14T14:17:29.283Z,2.55
2019-05-14T14:20:19.487Z,2.47
2019-05-14T14:23:21.137Z,3.17
2019-05-14T14:25:59.533Z,1.75
2019-05-14T14:28:49.453Z,2.67
2019-05-14T14:31:36.514Z,2.22
2019-05-14T14:34:25.092Z,2.10
2019-05-14T14:37:13.389Z,2.52
2019-05-14T14:40:01.778Z,2.02
2019-05-14T14:42:50.928Z,3.05
2019-05-14T14:45:45.672Z,2.62
2019-05-14T14:48:30.448Z,2.45
2019-05-14T14:51:19.225Z,2.02
2019-05-14T14:54:11.955Z,2.02
2019-05-14T14:56:59.205Z,1.60
2019-05-14T14:59:48.597Z,2.15
2019-05-14T15:02:40.459Z,2.02
2019-05-14T15:05:29.704Z,1.80
2019-05-14T15:08:16.739Z,1.25
2019-05-14T15:11:08.307Z,1.82
2019-05-14T15:13:54.555Z,1.42
2019-05-14T15:16:42.765Z,2.08
2019-05-14T15:19:31.774Z,1.98
2019-05-14T15:22:21.105Z,2.05
2019-05-14T15:25:09.370Z,2.35
2019-05-14T15:27:58.416Z,1.67
2019-05-14T15:30:49.899Z,2.47
2019-05-14T15:33:38.912Z,2.45
2019-05-14T15:36:26.814Z,1.92
2019-05-14T15:39:15.486Z,2.17
2019-05-14T15:42:05.786Z,2.67
2019-05-14T15:44:56.148Z,2.37
2019-05-14T15:47:42.149Z,2.33
2019-05-14T15:50:32.676Z,1.67
2019-05-14T15:53:25.004Z,1.50
2019-05-14T15:56:13.294Z,2.10
2019-05-14T15:59:02.094Z,2.42
2019-05-14T16:01:50.456Z,2.33
2019-05-14T16:04:39.267Z,2.40
2019-05-14T16:07:29.309Z,2.15
2019-05-14T16:10:21.718Z,2.55
2019-05-14T16:13:08.925Z,2.75
2019-05-14T16:16:01.281Z,2.55
2019-05-14T16:18:49.472Z,2.42
2019-05-14T16:21:38.564Z,2.22
2019-05-14T16:24:28.524Z,2.30
2019-05-14T16:27:19.643Z,2.60
2019-05-14T16:30:09.892Z,2.30
2019-05-14T16:32:59.648Z,2.72
2019-05-14T16:35:48.517Z,2.55
2019-05-14T16:38:39.199Z,2.65
2019-05-14T16:41:28.891Z,2.55
2019-05-14T16:44:15.688Z,2.30
2019-05-14T16:47:04.438Z,3.72
2019-05-14T16:49:53.044Z,2.22
2019-05-14T16:52:42.642Z,2.62
2019-05-14T16:55:31.458Z,2.55
2019-05-14T16:58:19.829Z,2.62
2019-05-14T17:01:09.537Z,2.75
2019-05-14T17:03:59.533Z,2.47
2019-05-14T17:06:49.290Z,2.83
2019-05-14T17:09:38.583Z,2.60
2019-05-14T17:12:26.442Z,2.33
2019-05-14T17:15:33.826Z,2.45
2019-05-14T17:18:22.176Z,3.00
2019-05-14T17:21:10.698Z,2.58
2019-05-14T17:23:59.072Z,2.33
2019-05-14T17:26:48.899Z,2.40
2019-05-14T17:29:38.935Z,2.45
2019-05-14T17:32:30.077Z,2.60
2019-05-14T17:35:16.519Z,1.60
2019-05-14T17:38:04.428Z,1.67
2019-05-14T17:40:54.243Z,1.75
2019-05-14T17:43:42.832Z,2.08
2019-05-14T17:46:30.655Z,2.22
2019-05-14T17:49:19.299Z,2.50
2019-05-14T17:52:07.753Z,2.85
2019-05-14T17:54:55.628Z,2.40
2019-05-14T17:57:47.519Z,2.15
2019-05-14T18:00:33.004Z,2.17
2019-05-14T18:03:21.197Z,2.10
2019-05-14T18:06:10.056Z,1.90
2019-05-14T18:08:58.380Z,2.42
2019-05-14T18:11:48.960Z,2.30
2019-05-14T18:14:38.437Z,2.42
2019-05-14T18:17:26.215Z,2.87
2019-05-14T18:20:15.139Z,2.60
2019-05-14T18:23:03.509Z,2.30
2019-05-14T18:26:03.796Z,2.45
2019-05-14T18:28:41.503Z,2.33
2019-05-14T18:31:29.640Z,1.65
2019-05-14T18:34:18.983Z,2.30
2019-05-14T18:37:13.462Z,2.58
2019-05-14T18:39:58.637Z,2.30
2019-05-14T18:42:48.074Z,2.47
2019-05-14T18:45:38.736Z,2.87
2019-05-14T18:48:28.777Z,2.85
2019-05-14T18:51:15.941Z,2.65
2019-05-14T18:54:03.925Z,3.35
2019-05-14T18:56:51.982Z,2.62
2019-05-14T18:59:40.580Z,2.92
2019-05-14T19:02:29.324Z,2.90
2019-05-14T19:05:18.625Z,2.77
2019-05-14T19:08:06.830Z,2.50
2019-05-14T19:10:55.120Z,2.80
2019-05-14T19:13:43.469Z,2.75
2019-05-14T19:16:31.987Z,2.85
2019-05-14T19:19:20.793Z,2.60
2019-05-14T19:22:09.079Z,2.60
2019-05-14T19:24:58.683Z,3.27
2019-05-14T19:27:48.730Z,3.15
2019-05-14T19:30:38.137Z,3.02
2019-05-14T19:33:28.698Z,4.37
2019-05-14T19:36:18.607Z,3.83
2019-05-14T19:39:07.878Z,3.00
2019-05-14T19:41:56.140Z,3.08
2019-05-14T19:44:44.631Z,2.80
2019-05-14T19:47:32.685Z,2.80
2019-05-14T19:50:21.677Z,3.72
2019-05-14T19:53:09.462Z,2.58
2019-05-14T19:55:59.344Z,2.80
2019-05-14T19:58:47.778Z,3.85
2019-05-14T20:01:38.579Z,3.30
2019-05-14T20:04:26.029Z,3.72
2019-05-14T20:07:14.756Z,3.00
2019-05-14T20:10:02.843Z,3.47
2019-05-14T20:12:51.490Z,3.25
2019-05-14T20:15:39.803Z,2.85
2019-05-14T20:18:28.925Z,3.70
2019-05-14T20:21:17.895Z,3.22
2019-05-14T20:24:05.793Z,3.65
2019-05-14T20:27:05.934Z,4.08
2019-05-14T20:29:44.250Z,3.58
2019-05-14T20:32:32.514Z,3.17
2019-05-14T20:35:31.795Z,2.83
2019-05-14T20:38:10.682Z,3.42
2019-05-14T20:40:58.573Z,3.12
2019-05-14T20:43:48.033Z,3.60
2019-05-14T20:46:38.071Z,3.85
2019-05-14T20:49:25.499Z,3.30
2019-05-14T20:52:13.682Z,4.20
2019-05-14T20:55:02.378Z,4.03
2019-05-14T20:57:51.697Z,3.87
2019-05-14T21:00:41.560Z,5.65
2019-05-14T21:03:29.104Z,3.75
2019-05-14T21:06:18.767Z,4.28
2019-05-14T21:09:07.143Z,5.03
2019-05-14T21:11:55.007Z,4.90
2019-05-14T21:14:42.743Z,4.92
2019-05-14T21:17:30.973Z,5.17
2019-05-14T21:20:19.530Z,4.45
2019-05-14T21:23:08.972Z,4.08
2019-05-14T21:25:57.575Z,4.67
2019-05-14T21:28:45.285Z,4.28
2019-05-14T21:31:33.125Z,5.33
2019-05-14T21:34:21.448Z,6.30
2019-05-14T21:37:09.307Z,4.95
2019-05-14T21:39:58.292Z,6.15
2019-05-14T21:42:48.671Z,5.70
2019-05-14T21:45:38.123Z,6.10
2019-05-14T21:48:25.416Z,5.37
2019-05-14T21:51:13.907Z,5.53
2019-05-14T21:54:02.688Z,5.70
2019-05-14T21:56:50.531Z,5.75
2019-05-14T21:59:39.134Z,7.20
2019-05-14T22:02:30.410Z,6.30
2019-05-14T22:05:18.992Z,6.92
2019-05-14T22:08:08.892Z,7.03
2019-05-14T22:10:58.529Z,6.83
2019-05-14T22:13:46.383Z,7.00
2019-05-14T22:16:34.696Z,7.72
2019-05-14T22:19:22.846Z,7.10
2019-05-14T22:22:11.239Z,7.35
2019-05-14T22:24:59.834Z,7.67
2019-05-14T22:27:48.519Z,6.62
2019-05-14T22:30:38.814Z,7.92
2019-05-14T22:33:28.331Z,6.87
2019-05-14T22:36:20.931Z,9.08
2019-05-14T22:39:06.448Z,8.38
2019-05-14T22:41:54.778Z,8.43
2019-05-14T22:44:42.634Z,7.97
2019-05-14T22:47:31.049Z,8.13
2019-05-14T22:50:19.720Z,7.45
2019-05-14T22:53:09.364Z,7.78
2019-05-14T22:55:58.654Z,8.68
2019-05-14T22:58:48.841Z,8.55
2019-05-14T23:01:38.594Z,9.53
2019-05-14T23:04:25.757Z,8.00
2019-05-14T23:07:14.084Z,9.15
2019-05-14T23:10:01.882Z,8.90
2019-05-14T23:12:50.336Z,9.88
2019-05-14T23:15:38.729Z,10.03
2019-05-14T23:18:28.657Z,9.63
2019-05-14T23:21:16.530Z,9.05
2019-05-14T23:24:04.920Z,9.13
2019-05-14T23:26:53.199Z,9.88
2019-05-14T23:29:41.519Z,9.88
2019-05-14T23:32:29.699Z,10.20
2019-05-14T23:35:18.769Z,9.10
2019-05-14T23:38:08.478Z,9.65
2019-05-14T23:40:58.827Z,8.95
2019-05-14T23:43:47.564Z,9.58
2019-05-14T23:46:36.022Z,10.25
2019-05-14T23:49:24.210Z,9.75
2019-05-14T23:52:12.873Z,10.35
2019-05-14T23:55:00.789Z,10.88
2019-05-14T23:57:49.213Z,10.70
